AAL5421 KPWM-KJFK
Flight info
| Callsign | AAL5421 |
|---|---|
| Flight time | N/A |
| Altitude | 34000 |
| Route | NUBLE4 JJIMY PVD TRAIT PARCH PARCH3 |
| Aircraft | A20N/M-SDE2E3FGHIRWXY/LB1 |
Departure
| Time | 2026-05-04 20:43 |
|---|---|
| Airport | Portland International Jetport (KPWM) |
Arrival
| Time | N/A |
|---|---|
| Airport | John F. Kennedy International Airport (KJFK) |
| Time | Latitude | Longitude | Altitude | Speed | Heading |
|---|---|---|---|---|---|
| 2026-05-04 20:12 | 43.64673 | -70.30795 | 61 ft | 0 kts | 281° |
| 2026-05-04 20:27 | 43.64673 | -70.30794 | 61 ft | 1 kts | 281° |
| 2026-05-04 20:27 | 43.64672 | -70.30786 | 61 ft | 1 kts | 281° |
| 2026-05-04 20:27 | 43.64671 | -70.30779 | 61 ft | 1 kts | 278° |
| 2026-05-04 20:28 | 43.64670 | -70.30766 | 56 ft | 1 kts | 261° |
| 2026-05-04 20:28 | 43.64672 | -70.30754 | 58 ft | 1 kts | 243° |
| 2026-05-04 20:28 | 43.64676 | -70.30743 | 52 ft | 1 kts | 225° |
| 2026-05-04 20:28 | 43.64684 | -70.30735 | 52 ft | 1 kts | 194° |
| 2026-05-04 20:29 | 43.64678 | -70.30731 | 52 ft | 3 kts | 163° |
| 2026-05-04 20:29 | 43.64672 | -70.30722 | 57 ft | 0 kts | 129° |
| 2026-05-04 20:29 | 43.64662 | -70.30712 | 59 ft | 3 kts | 142° |
| 2026-05-04 20:29 | 43.64645 | -70.30700 | 59 ft | 3 kts | 169° |
| 2026-05-04 20:30 | 43.64642 | -70.30700 | 59 ft | 0 kts | 176° |
| 2026-05-04 20:38 | 43.64641 | -70.30700 | 60 ft | 1 kts | 176° |
| 2026-05-04 20:39 | 43.64614 | -70.30696 | 57 ft | 7 kts | 173° |
| 2026-05-04 20:39 | 43.64564 | -70.30615 | 58 ft | 19 kts | 93° |
| 2026-05-04 20:39 | 43.64547 | -70.30394 | 52 ft | 31 kts | 97° |
| 2026-05-04 20:39 | 43.64535 | -70.30211 | 56 ft | 16 kts | 94° |
| 2026-05-04 20:40 | 43.64529 | -70.30067 | 55 ft | 0 kts | 85° |
| 2026-05-04 20:40 | 43.64544 | -70.30026 | 52 ft | 13 kts | 47° |
| 2026-05-04 20:40 | 43.64557 | -70.29931 | 49 ft | 1 kts | 136° |
| 2026-05-04 20:40 | 43.64499 | -70.29916 | 49 ft | 7 kts | 181° |
| 2026-05-04 20:41 | 43.64496 | -70.29916 | 49 ft | 0 kts | 181° |
| 2026-05-04 20:41 | 43.64492 | -70.29916 | 49 ft | 4 kts | 181° |
| 2026-05-04 20:41 | 43.64431 | -70.29937 | 48 ft | 12 kts | 222° |
| 2026-05-04 20:41 | 43.64413 | -70.29994 | 48 ft | 1 kts | 270° |
| 2026-05-04 20:42 | 43.64413 | -70.29995 | 48 ft | 0 kts | 270° |
| 2026-05-04 20:42 | 43.64414 | -70.30047 | 49 ft | 27 kts | 270° |
| 2026-05-04 20:42 | 43.64452 | -70.30645 | 58 ft | 95 kts | 274° |
| 2026-05-04 20:42 | 43.64523 | -70.31803 | 103 ft | 142 kts | 275° |
| 2026-05-04 20:43 | 43.64629 | -70.33246 | 435 ft | 159 kts | 275° |
| 2026-05-04 20:43 | 43.64744 | -70.34891 | 798 ft | 183 kts | 277° |
| 2026-05-04 20:43 | 43.64899 | -70.36649 | 1723 ft | 188 kts | 273° |
| 2026-05-04 20:43 | 43.65016 | -70.38543 | 2220 ft | 216 kts | 273° |
| 2026-05-04 20:44 | 43.65129 | -70.40775 | 2358 ft | 247 kts | 273° |
| 2026-05-04 20:44 | 43.65230 | -70.43018 | 2580 ft | 221 kts | 269° |
| 2026-05-04 20:44 | 43.64848 | -70.45151 | 2852 ft | 241 kts | 243° |
| 2026-05-04 20:44 | 43.63685 | -70.46963 | 2961 ft | 267 kts | 219° |
| 2026-05-04 20:45 | 43.62073 | -70.48409 | 3012 ft | 285 kts | 216° |
| 2026-05-04 20:45 | 43.60357 | -70.49922 | 3006 ft | 299 kts | 216° |
| 2026-05-04 20:45 | 43.58582 | -70.51500 | 3011 ft | 308 kts | 216° |
| 2026-05-04 20:45 | 43.56798 | -70.53102 | 3007 ft | 296 kts | 217° |
| 2026-05-04 20:46 | 43.55170 | -70.54572 | 3008 ft | 273 kts | 217° |
| 2026-05-04 20:46 | 43.53635 | -70.55965 | 3011 ft | 257 kts | 217° |
| 2026-05-04 20:46 | 43.52108 | -70.57127 | 3012 ft | 247 kts | 207° |
| 2026-05-04 20:46 | 43.50491 | -70.57835 | 3003 ft | 240 kts | 201° |
| 2026-05-04 20:47 | 43.48921 | -70.58465 | 3007 ft | 231 kts | 201° |
| 2026-05-04 20:47 | 43.47403 | -70.59083 | 3011 ft | 225 kts | 202° |
| 2026-05-04 20:47 | 43.45921 | -70.59693 | 3011 ft | 220 kts | 201° |
| 2026-05-04 20:47 | 43.44476 | -70.60287 | 3003 ft | 214 kts | 202° |
| 2026-05-04 20:48 | 43.43066 | -70.60863 | 3028 ft | 209 kts | 202° |
| 2026-05-04 20:48 | 43.41841 | -70.61363 | 3188 ft | 198 kts | 202° |
| 2026-05-04 20:48 | 43.40578 | -70.61876 | 3312 ft | 191 kts | 203° |
| 2026-05-04 20:48 | 43.39284 | -70.62413 | 3306 ft | 197 kts | 203° |
| 2026-05-04 20:49 | 43.37871 | -70.63010 | 3719 ft | 227 kts | 202° |
| 2026-05-04 20:49 | 43.36270 | -70.63682 | 4301 ft | 253 kts | 202° |
| 2026-05-04 20:49 | 43.34499 | -70.64412 | 4879 ft | 278 kts | 201° |
| 2026-05-04 20:49 | 43.32571 | -70.65198 | 5432 ft | 300 kts | 202° |
| 2026-05-04 20:50 | 43.30500 | -70.66037 | 6018 ft | 321 kts | 202° |
| 2026-05-04 20:50 | 43.28299 | -70.66929 | 6572 ft | 339 kts | 201° |
| 2026-05-04 20:50 | 43.25982 | -70.67866 | 7125 ft | 355 kts | 201° |
| 2026-05-04 20:50 | 43.23563 | -70.68844 | 7686 ft | 369 kts | 201° |
| 2026-05-04 20:51 | 43.21057 | -70.69857 | 8267 ft | 381 kts | 201° |
| 2026-05-04 20:51 | 43.18484 | -70.70894 | 9013 ft | 388 kts | 201° |
| 2026-05-04 20:51 | 43.15936 | -70.72110 | 9853 ft | 388 kts | 209° |
| 2026-05-04 20:51 | 43.13556 | -70.73781 | 10494 ft | 392 kts | 212° |
| 2026-05-04 20:52 | 43.11139 | -70.75541 | 11262 ft | 396 kts | 212° |
| 2026-05-04 20:52 | 43.08761 | -70.77260 | 11834 ft | 374 kts | 212° |
| 2026-05-04 20:52 | 43.06525 | -70.78863 | 12375 ft | 358 kts | 213° |
| 2026-05-04 20:52 | 43.04300 | -70.80466 | 12930 ft | 367 kts | 213° |
| 2026-05-04 20:53 | 43.02010 | -70.82121 | 13501 ft | 378 kts | 213° |
| 2026-05-04 20:53 | 42.99666 | -70.83806 | 14013 ft | 382 kts | 212° |
| 2026-05-04 20:53 | 42.97309 | -70.85492 | 14509 ft | 385 kts | 212° |
| 2026-05-04 20:53 | 42.94925 | -70.87195 | 15030 ft | 388 kts | 212° |
| 2026-05-04 20:54 | 42.92524 | -70.88908 | 15564 ft | 391 kts | 212° |
| 2026-05-04 20:54 | 42.90101 | -70.90636 | 16105 ft | 394 kts | 212° |
| 2026-05-04 20:54 | 42.87693 | -70.92351 | 16673 ft | 398 kts | 212° |
| 2026-05-04 20:54 | 42.85230 | -70.94103 | 17230 ft | 401 kts | 212° |
| 2026-05-04 20:55 | 42.82700 | -70.95763 | 17798 ft | 407 kts | 207° |
| 2026-05-04 20:55 | 42.80022 | -70.97104 | 18317 ft | 413 kts | 204° |
| 2026-05-04 20:55 | 42.77305 | -70.98420 | 18823 ft | 417 kts | 204° |
| 2026-05-04 20:55 | 42.74558 | -70.99754 | 19390 ft | 421 kts | 204° |
| 2026-05-04 20:56 | 42.71784 | -71.01103 | 19989 ft | 425 kts | 204° |
| 2026-05-04 20:56 | 42.68983 | -71.02464 | 20594 ft | 429 kts | 204° |
| 2026-05-04 20:56 | 42.66166 | -71.03833 | 21216 ft | 432 kts | 204° |
| 2026-05-04 20:56 | 42.63327 | -71.05212 | 21855 ft | 435 kts | 204° |
| 2026-05-04 20:57 | 42.60472 | -71.06597 | 22488 ft | 437 kts | 205° |
| 2026-05-04 20:57 | 42.57603 | -71.07988 | 23155 ft | 439 kts | 205° |
| 2026-05-04 20:57 | 42.54758 | -71.09366 | 23752 ft | 441 kts | 205° |
| 2026-05-04 20:57 | 42.51868 | -71.10763 | 24329 ft | 442 kts | 205° |
| 2026-05-04 20:58 | 42.48970 | -71.12163 | 24912 ft | 442 kts | 205° |
| 2026-05-04 20:58 | 42.46071 | -71.13563 | 25507 ft | 443 kts | 205° |
| 2026-05-04 20:58 | 42.43173 | -71.14961 | 26096 ft | 442 kts | 205° |
| 2026-05-04 20:58 | 42.40245 | -71.16255 | 26717 ft | 444 kts | 202° |
| 2026-05-04 20:59 | 42.37287 | -71.17425 | 27356 ft | 442 kts | 202° |
| 2026-05-04 20:59 | 42.34340 | -71.18591 | 28001 ft | 440 kts | 202° |
| 2026-05-04 20:59 | 42.31409 | -71.19753 | 28671 ft | 438 kts | 203° |
| 2026-05-04 20:59 | 42.28538 | -71.20891 | 29345 ft | 434 kts | 203° |
| 2026-05-04 21:00 | 42.25649 | -71.22036 | 29989 ft | 431 kts | 203° |
| 2026-05-04 21:00 | 42.22781 | -71.23172 | 30579 ft | 427 kts | 203° |
| 2026-05-04 21:00 | 42.19944 | -71.24295 | 31202 ft | 423 kts | 203° |
| 2026-05-04 21:00 | 42.17140 | -71.25402 | 31890 ft | 417 kts | 203° |
| 2026-05-04 21:01 | 42.14384 | -71.26490 | 32587 ft | 410 kts | 203° |
| 2026-05-04 21:01 | 42.11672 | -71.27559 | 33287 ft | 402 kts | 203° |
| 2026-05-04 21:01 | 42.08971 | -71.28629 | 33510 ft | 408 kts | 203° |
| 2026-05-04 21:01 | 42.06226 | -71.29720 | 33622 ft | 415 kts | 202° |
| 2026-05-04 21:02 | 42.03469 | -71.30812 | 33751 ft | 422 kts | 202° |
| 2026-05-04 21:02 | 42.00632 | -71.31932 | 33860 ft | 429 kts | 202° |
| 2026-05-04 21:02 | 41.94782 | -71.34233 | 33870 ft | 447 kts | 202° |
| 2026-05-04 21:03 | 41.88701 | -71.36616 | 33847 ft | 460 kts | 202° |
| 2026-05-04 21:03 | 41.82571 | -71.39005 | 33898 ft | 458 kts | 202° |
| 2026-05-04 21:04 | 41.76488 | -71.41384 | 33896 ft | 458 kts | 203° |
| 2026-05-04 21:04 | 41.70826 | -71.44956 | 33899 ft | 445 kts | 220° |
| 2026-05-04 21:05 | 41.66053 | -71.50074 | 33898 ft | 439 kts | 226° |
| 2026-05-04 21:05 | 41.61376 | -71.55317 | 33891 ft | 439 kts | 225° |
| 2026-05-04 21:06 | 41.56696 | -71.60530 | 33896 ft | 442 kts | 226° |
| 2026-05-04 21:06 | 41.51976 | -71.65776 | 33895 ft | 440 kts | 225° |
| 2026-05-04 21:07 | 41.47266 | -71.71003 | 33932 ft | 441 kts | 225° |
| 2026-05-04 21:07 | 41.42546 | -71.76228 | 33934 ft | 441 kts | 225° |
| 2026-05-04 21:08 | 41.37824 | -71.81445 | 33934 ft | 441 kts | 225° |
| 2026-05-04 21:08 | 41.33265 | -71.86794 | 33466 ft | 440 kts | 229° |
| 2026-05-04 21:09 | 41.30946 | -71.89421 | 33325 ft | 432 kts | 224° |
| 2026-05-04 21:09 | 41.28586 | -71.91872 | 33735 ft | 430 kts | 224° |
| 2026-05-04 21:09 | 41.26225 | -71.94335 | 33916 ft | 435 kts | 225° |
| 2026-05-04 21:09 | 41.23848 | -71.96874 | 33918 ft | 443 kts | 225° |
| 2026-05-04 21:10 | 41.19055 | -72.02084 | 33949 ft | 444 kts | 226° |
| 2026-05-04 21:10 | 41.14357 | -72.07218 | 33677 ft | 432 kts | 225° |
| 2026-05-04 21:11 | 41.12177 | -72.09857 | 33340 ft | 417 kts | 233° |
| 2026-05-04 21:11 | 41.10411 | -72.12807 | 33007 ft | 401 kts | 243° |
| 2026-05-04 21:11 | 41.09061 | -72.15985 | 32684 ft | 393 kts | 251° |
| 2026-05-04 21:11 | 41.08099 | -72.19348 | 32361 ft | 389 kts | 258° |
| 2026-05-04 21:12 | 41.07276 | -72.22756 | 32051 ft | 387 kts | 257° |
| 2026-05-04 21:12 | 41.06444 | -72.26137 | 31726 ft | 384 kts | 257° |
| 2026-05-04 21:12 | 41.05613 | -72.29483 | 31415 ft | 380 kts | 257° |
| 2026-05-04 21:12 | 41.04799 | -72.32752 | 31114 ft | 378 kts | 257° |
| 2026-05-04 21:13 | 41.03979 | -72.36049 | 30808 ft | 376 kts | 257° |
| 2026-05-04 21:13 | 41.03163 | -72.39326 | 30492 ft | 374 kts | 257° |
| 2026-05-04 21:13 | 41.02347 | -72.42597 | 30194 ft | 373 kts | 257° |
| 2026-05-04 21:13 | 41.01535 | -72.45844 | 29878 ft | 371 kts | 257° |
| 2026-05-04 21:14 | 41.00726 | -72.49074 | 29532 ft | 368 kts | 257° |
| 2026-05-04 21:14 | 40.99923 | -72.52280 | 29194 ft | 367 kts | 257° |
| 2026-05-04 21:14 | 40.99121 | -72.55479 | 28854 ft | 365 kts | 257° |
| 2026-05-04 21:14 | 40.98332 | -72.58617 | 28525 ft | 364 kts | 257° |
| 2026-05-04 21:15 | 40.97535 | -72.61787 | 28137 ft | 363 kts | 257° |
| 2026-05-04 21:15 | 40.96735 | -72.64963 | 27499 ft | 364 kts | 257° |
| 2026-05-04 21:15 | 40.95934 | -72.68147 | 26818 ft | 365 kts | 257° |
| 2026-05-04 21:15 | 40.95128 | -72.71340 | 26150 ft | 366 kts | 257° |
| 2026-05-04 21:16 | 40.94320 | -72.74536 | 25501 ft | 367 kts | 256° |
| 2026-05-04 21:16 | 40.93369 | -72.77680 | 24848 ft | 372 kts | 247° |
| 2026-05-04 21:16 | 40.91890 | -72.80517 | 24225 ft | 380 kts | 233° |
| 2026-05-04 21:16 | 40.90873 | -72.81861 | 23892 ft | 385 kts | 226° |